Time;durP1;ratioP1;P1;durP2;ratioP2;P2;SDS_P1;SDS_P2;PMS_P1;PMS_P2;Temp;Humidity;BMP_temperature;BMP_pressure;BME280_temperature;BME280_humidity;BME280_pressure;Samples;Min_cycle;Max_cycle;Signal;HPM_P1;HPM_P2
2023/05/31 00:01:16;;;;;;;11.25;6.85;;;9.90;90.10;;;;;;5024672;28;20037;-44
2023/05/31 00:03:43;;;;;;;11.82;6.95;;;9.90;90.10;;;;;;5025764;28;20036;-45
2023/05/31 00:06:10;;;;;;;11.05;5.80;;;9.90;90.10;;;;;;5020686;28;20407;-43
2023/05/31 00:08:38;;;;;;;9.73;5.93;;;9.90;90.20;;;;;;5034259;28;20489;-43
2023/05/31 00:11:06;;;;;;;8.43;5.78;;;9.90;90.20;;;;;;5024579;28;20479;-43
2023/05/31 00:13:32;;;;;;;8.48;6.32;;;9.90;89.90;;;;;;5024473;28;20471;-43
2023/05/31 00:16:01;;;;;;;11.32;6.47;;;9.90;89.90;;;;;;5031664;28;20044;-43
2023/05/31 00:18:27;;;;;;;11.10;6.47;;;9.80;89.70;;;;;;5031474;28;20132;-42
2023/05/31 00:20:54;;;;;;;10.45;6.80;;;9.80;89.90;;;;;;5028928;28;20276;-44
2023/05/31 00:23:20;;;;;;;10.50;5.90;;;9.80;89.90;;;;;;5025099;28;20103;-42
2023/05/31 00:25:47;;;;;;;10.10;5.68;;;9.80;89.90;;;;;;5021033;28;20037;-42
2023/05/31 00:28:14;;;;;;;10.02;6.05;;;9.80;89.90;;;;;;5029148;28;20032;-43
2023/05/31 00:30:41;;;;;;;10.60;5.65;;;9.70;89.90;;;;;;5018563;28;20038;-43
2023/05/31 00:33:10;;;;;;;10.63;5.78;;;9.70;89.90;;;;;;5024372;28;20025;-43
2023/05/31 00:35:37;;;;;;;9.75;6.57;;;9.70;89.90;;;;;;5022527;28;20049;-43
2023/05/31 00:38:07;;;;;;;9.35;5.97;;;9.70;89.80;;;;;;5022217;28;20101;-42
2023/05/31 00:40:34;;;;;;;10.70;6.65;;;9.60;90.00;;;;;;5027717;28;20056;-42
2023/05/31 00:43:03;;;;;;;9.25;5.55;;;9.60;90.00;;;;;;5033270;28;20116;-43
2023/05/31 00:45:31;;;;;;;9.37;5.53;;;9.60;90.10;;;;;;5032590;28;20025;-43
2023/05/31 00:48:00;;;;;;;9.63;6.20;;;9.60;90.00;;;;;;5024937;28;20037;-45
2023/05/31 00:50:30;;;;;;;14.00;6.07;;;9.60;90.00;;;;;;5025552;28;20041;-42
2023/05/31 00:52:59;;;;;;;8.27;5.07;;;9.60;89.90;;;;;;5027428;28;20084;-43
2023/05/31 00:55:27;;;;;;;8.85;5.57;;;9.60;89.80;;;;;;5028184;28;20083;-42
2023/05/31 00:57:54;;;;;;;9.40;6.00;;;9.50;89.70;;;;;;5031352;28;20064;-41
2023/05/31 01:00:21;;;;;;;9.02;5.72;;;9.50;89.70;;;;;;5033110;28;20108;-42
2023/05/31 01:02:50;;;;;;;11.10;6.05;;;9.50;89.60;;;;;;5024471;28;20125;-46
2023/05/31 01:05:18;;;;;;;10.68;5.80;;;9.40;89.40;;;;;;5033309;28;20428;-43
2023/05/31 01:07:45;;;;;;;11.20;5.70;;;9.40;89.60;;;;;;5021206;28;20046;-44
2023/05/31 01:10:15;;;;;;;9.77;5.45;;;9.40;89.60;;;;;;5025106;28;20056;-43
2023/05/31 01:12:55;;;;;;;9.18;5.60;;;9.40;89.50;;;;;;5028655;28;20215;-43
2023/05/31 01:15:45;;;;;;;8.82;5.90;;;9.30;89.50;;;;;;5019539;28;20083;-42
2023/05/31 01:18:37;;;;;;;7.53;5.15;;;9.30;89.60;;;;;;5027846;28;20026;-44
2023/05/31 01:21:05;;;;;;;8.20;4.97;;;9.30;89.40;;;;;;5032048;28;20033;-43
2023/05/31 01:23:55;;;;;;;8.38;4.93;;;9.30;89.30;;;;;;5026541;28;20026;-43
2023/05/31 01:26:39;;;;;;;;;;;9.20;89.30;;;;;;5025746;28;20060;-42
2023/05/31 01:29:14;;;;;;;7.10;4.85;;;9.20;89.30;;;;;;5023823;28;20246;-44
2023/05/31 01:31:41;;;;;;;6.70;4.57;;;9.10;89.10;;;;;;5031336;28;20030;-43
2023/05/31 01:34:09;;;;;;;6.40;4.03;;;9.10;89.20;;;;;;5026664;28;20029;-42
2023/05/31 01:36:36;;;;;;;5.60;3.55;;;9.10;89.30;;;;;;5025876;28;20057;-42
2023/05/31 01:39:03;;;;;;;8.13;5.40;;;9.10;89.20;;;;;;5024203;28;20045;-42
2023/05/31 01:41:33;;;;;;;6.82;4.78;;;9.00;89.20;;;;;;5027599;28;20081;-42
2023/05/31 01:44:00;;;;;;;6.05;4.03;;;9.00;89.10;;;;;;5016019;28;20077;-42
2023/05/31 01:46:30;;;;;;;5.65;4.18;;;9.00;89.10;;;;;;5031139;28;20366;-41
2023/05/31 01:48:57;;;;;;;6.72;3.95;;;9.00;89.10;;;;;;5027605;28;20042;-43
2023/05/31 01:51:27;;;;;;;11.80;5.25;;;9.00;89.10;;;;;;5031100;28;20034;-42
2023/05/31 01:53:56;;;;;;;7.15;5.32;;;8.90;89.10;;;;;;5026211;28;20136;-42
2023/05/31 01:56:25;;;;;;;9.45;5.05;;;9.00;89.10;;;;;;5026047;28;20464;-42
2023/05/31 01:58:56;;;;;;;9.85;6.47;;;9.00;89.10;;;;;;5025804;28;20463;-44
2023/05/31 02:01:26;;;;;;;10.73;7.13;;;8.90;89.20;;;;;;5023201;28;20026;-42
2023/05/31 02:03:53;;;;;;;10.48;6.55;;;8.90;89.40;;;;;;5021738;28;20057;-45
2023/05/31 02:06:20;;;;;;;11.43;7.05;;;8.90;89.50;;;;;;5024398;28;20053;-42
2023/05/31 02:08:47;;;;;;;8.80;6.82;;;8.90;89.50;;;;;;5031008;28;20033;-43
2023/05/31 02:11:15;;;;;;;9.65;7.05;;;8.90;89.60;;;;;;5025355;28;20030;-44
2023/05/31 02:13:42;;;;;;;9.52;5.63;;;8.90;89.60;;;;;;5032351;28;20053;-42
2023/05/31 02:16:09;;;;;;;9.77;6.57;;;8.90;89.50;;;;;;5029729;28;20025;-43
2023/05/31 02:18:36;;;;;;;8.18;5.78;;;8.90;89.40;;;;;;5032345;28;20580;-42
2023/05/31 02:21:03;;;;;;;8.00;5.75;;;8.90;89.50;;;;;;5025783;28;20041;-42
2023/05/31 02:23:30;;;;;;;10.55;5.70;;;8.90;89.30;;;;;;5024471;28;20021;-43
2023/05/31 02:25:57;;;;;;;8.77;5.60;;;8.80;89.40;;;;;;5018151;28;20500;-42
2023/05/31 02:28:24;;;;;;;10.02;5.35;;;8.80;89.40;;;;;;5030737;28;20332;-43
2023/05/31 02:30:59;;;;;;;7.72;5.53;;;8.80;89.30;;;;;;5030307;28;20048;-42
2023/05/31 02:33:27;;;;;;;6.65;4.90;;;8.70;89.20;;;;;;5032386;28;20108;-42
2023/05/31 02:35:56;;;;;;;10.25;4.80;;;8.70;89.20;;;;;;5032101;28;20108;-43
2023/05/31 02:38:27;;;;;;;9.65;4.82;;;8.70;89.20;;;;;;5032236;28;20352;-43
2023/05/31 02:40:54;;;;;;;7.20;4.70;;;8.60;89.20;;;;;;5031262;28;20052;-43
2023/05/31 02:43:20;;;;;;;10.13;5.25;;;8.60;89.30;;;;;;5025164;28;20087;-43
2023/05/31 02:45:47;;;;;;;11.02;5.57;;;8.60;89.20;;;;;;5031347;28;20367;-42
2023/05/31 02:48:14;;;;;;;8.60;5.10;;;8.60;89.30;;;;;;5027968;28;20092;-42
2023/05/31 02:50:43;;;;;;;6.82;4.72;;;8.60;89.10;;;;;;5026689;28;20018;-44
2023/05/31 02:53:10;;;;;;;8.23;5.88;;;8.50;89.20;;;;;;5025879;28;20025;-42
2023/05/31 02:55:37;;;;;;;6.78;5.18;;;8.50;89.30;;;;;;5025446;28;20025;-42
2023/05/31 02:58:04;;;;;;;7.05;5.68;;;8.50;89.20;;;;;;5031286;28;20451;-44
2023/05/31 03:00:31;;;;;;;7.00;4.35;;;8.50;89.10;;;;;;5028216;28;20029;-42
2023/05/31 03:03:02;;;;;;;8.85;5.55;;;8.40;89.20;;;;;;5033045;28;20034;-43
2023/05/31 03:05:29;;;;;;;7.78;5.10;;;8.40;89.50;;;;;;5035250;28;20354;-42
2023/05/31 03:07:56;;;;;;;8.60;6.07;;;8.50;89.40;;;;;;5035155;28;20064;-42
2023/05/31 03:10:22;;;;;;;8.45;5.63;;;8.50;89.60;;;;;;5024520;28;20037;-41
2023/05/31 03:12:49;;;;;;;8.93;5.20;;;8.60;89.70;;;;;;5026017;28;20434;-44
2023/05/31 03:15:16;;;;;;;6.97;4.97;;;8.60;89.70;;;;;;5032049;28;20363;-41
2023/05/31 03:17:43;;;;;;;8.98;5.00;;;8.60;89.70;;;;;;5026904;28;20408;-42
2023/05/31 03:20:10;;;;;;;8.57;5.35;;;8.60;89.60;;;;;;5034774;28;20104;-44
2023/05/31 03:22:39;;;;;;;8.30;5.13;;;8.60;89.60;;;;;;5029464;28;20034;-42
2023/05/31 03:25:05;;;;;;;8.00;4.75;;;8.60;89.40;;;;;;5029142;28;20087;-43
2023/05/31 03:27:32;;;;;;;7.22;4.55;;;8.60;89.40;;;;;;5033726;28;20087;-42
2023/05/31 03:29:58;;;;;;;7.45;4.88;;;8.60;89.40;;;;;;5028644;28;20030;-43
2023/05/31 03:32:25;;;;;;;7.95;4.90;;;8.60;89.50;;;;;;5026221;28;20034;-42
2023/05/31 03:34:52;;;;;;;7.35;4.63;;;8.60;89.40;;;;;;5025129;28;20064;-42
2023/05/31 03:37:22;;;;;;;7.40;4.97;;;8.60;89.40;;;;;;5032300;28;20057;-43
2023/05/31 03:39:50;;;;;;;6.30;4.60;;;8.60;89.50;;;;;;5034848;28;20502;-41
2023/05/31 03:42:17;;;;;;;7.15;4.88;;;8.60;89.50;;;;;;5033927;28;20064;-42
2023/05/31 03:44:43;;;;;;;9.00;5.15;;;8.60;89.50;;;;;;5032964;28;20025;-42
2023/05/31 03:47:10;;;;;;;10.13;5.47;;;8.70;89.50;;;;;;5032647;28;20095;-42
2023/05/31 03:49:37;;;;;;;7.35;4.50;;;8.70;89.60;;;;;;5020382;28;20811;-43
2023/05/31 03:52:04;;;;;;;7.45;4.95;;;8.70;89.70;;;;;;5032772;28;20033;-43
2023/05/31 03:54:31;;;;;;;6.60;4.65;;;8.70;89.70;;;;;;5024185;28;20088;-42
2023/05/31 03:56:57;;;;;;;5.80;4.00;;;8.80;89.70;;;;;;5031196;28;20032;-42
2023/05/31 03:59:23;;;;;;;7.68;4.30;;;8.80;89.70;;;;;;5018349;28;20033;-44
2023/05/31 04:01:50;;;;;;;7.13;4.55;;;8.80;89.70;;;;;;5027456;28;20378;-41
2023/05/31 04:04:16;;;;;;;6.75;4.38;;;8.80;89.60;;;;;;5030851;28;20037;-43
2023/05/31 04:06:43;;;;;;;6.68;3.97;;;8.80;89.70;;;;;;5023943;28;20444;-43
2023/05/31 04:09:12;;;;;;;6.65;4.07;;;8.80;89.70;;;;;;5030746;28;20062;-42
2023/05/31 04:11:39;;;;;;;5.55;3.70;;;8.90;89.80;;;;;;5024898;28;20060;-41
2023/05/31 04:14:05;;;;;;;6.50;3.75;;;8.90;89.80;;;;;;5033993;28;20035;-42
2023/05/31 04:16:32;;;;;;;6.72;4.07;;;8.90;89.90;;;;;;5032923;28;20032;-41
2023/05/31 04:19:02;;;;;;;6.53;3.63;;;9.00;90.00;;;;;;5030345;28;20030;-42
2023/05/31 04:21:31;;;;;;;6.85;3.63;;;9.10;90.10;;;;;;5033965;28;20117;-41
2023/05/31 04:23:57;;;;;;;7.20;3.92;;;9.20;90.20;;;;;;5033890;28;20022;-42
2023/05/31 04:26:25;;;;;;;5.53;3.50;;;9.30;90.30;;;;;;5033167;28;20026;-42
2023/05/31 04:28:54;;;;;;;8.15;4.45;;;9.40;90.40;;;;;;5029556;28;20022;-42
2023/05/31 04:31:31;;;;;;;7.45;4.75;;;9.50;90.60;;;;;;5033781;28;20026;-42
2023/05/31 04:33:59;;;;;;;8.80;4.57;;;9.80;91.00;;;;;;5034105;28;20084;-41
2023/05/31 04:36:32;;;;;;;8.15;4.43;;;10.00;91.20;;;;;;5024398;28;20030;-42
2023/05/31 04:38:59;;;;;;;8.68;5.18;;;10.30;91.40;;;;;;5032565;28;20033;-42
2023/05/31 04:41:26;;;;;;;9.38;5.10;;;10.50;91.60;;;;;;5033430;28;20076;-42
2023/05/31 04:43:56;;;;;;;7.35;4.50;;;10.80;91.60;;;;;;5027735;28;20108;-43
2023/05/31 04:46:24;;;;;;;7.80;3.60;;;11.00;91.60;;;;;;5033483;28;20048;-42
2023/05/31 04:48:51;;;;;;;7.88;3.38;;;11.20;91.60;;;;;;5033512;28;20056;-44
2023/05/31 04:51:19;;;;;;;8.68;3.78;;;11.30;91.50;;;;;;5020126;28;20037;-41
2023/05/31 04:53:47;;;;;;;4.50;2.85;;;11.40;91.50;;;;;;5030659;28;20331;-45
2023/05/31 04:56:16;;;;;;;7.53;3.08;;;11.50;91.60;;;;;;5032677;28;20029;-41
2023/05/31 04:58:43;;;;;;;6.00;2.25;;;11.50;91.70;;;;;;5033260;28;20049;-44
2023/05/31 05:01:14;;;;;;;10.68;4.47;;;11.60;91.80;;;;;;5021620;28;20025;-43
2023/05/31 05:03:42;;;;;;;7.05;3.30;;;11.70;91.90;;;;;;5018999;28;20045;-42
2023/05/31 05:06:17;;;;;;;6.82;3.08;;;11.80;92.10;;;;;;5025942;28;20038;-43
2023/05/31 05:08:46;;;;;;;6.18;2.92;;;11.80;92.10;;;;;;5023640;28;20544;-43
2023/05/31 05:11:12;;;;;;;6.00;2.38;;;11.90;92.30;;;;;;5031017;28;20049;-43
2023/05/31 05:13:39;;;;;;;7.38;2.65;;;11.90;92.40;;;;;;5032897;28;20022;-43
2023/05/31 05:16:05;;;;;;;7.32;2.40;;;12.00;92.50;;;;;;5032013;28;20070;-42
2023/05/31 05:18:33;;;;;;;8.48;3.08;;;12.10;92.60;;;;;;5020299;28;20380;-42
2023/05/31 05:20:59;;;;;;;5.68;2.05;;;12.10;92.70;;;;;;5017799;28;20044;-42
2023/05/31 05:23:25;;;;;;;9.05;3.13;;;12.20;92.80;;;;;;5030248;28;20032;-42
2023/05/31 05:25:52;;;;;;;5.40;2.00;;;12.30;92.90;;;;;;5030586;28;20415;-42
2023/05/31 05:28:19;;;;;;;7.60;2.28;;;12.30;93.00;;;;;;5031996;28;20033;-43
2023/05/31 05:30:46;;;;;;;5.05;2.58;;;12.40;93.20;;;;;;5031949;28;20029;-43
2023/05/31 05:33:15;;;;;;;10.90;4.10;;;12.50;93.30;;;;;;5032147;28;20112;-46
2023/05/31 05:35:42;;;;;;;7.13;2.35;;;12.60;93.50;;;;;;5020952;28;20470;-43
2023/05/31 05:38:09;;;;;;;15.57;3.22;;;12.70;93.60;;;;;;5032286;28;20036;-42
2023/05/31 05:40:36;;;;;;;7.07;2.38;;;12.80;93.70;;;;;;5030327;28;20026;-44
2023/05/31 05:43:03;;;;;;;8.15;1.75;;;12.90;93.80;;;;;;5028827;28;20033;-43
2023/05/31 05:45:30;;;;;;;6.07;1.77;;;13.00;93.80;;;;;;5024420;28;20635;-44
2023/05/31 05:47:57;;;;;;;12.63;2.30;;;13.20;93.80;;;;;;5027637;28;20433;-42
2023/05/31 05:50:23;;;;;;;5.60;1.60;;;13.30;93.60;;;;;;5013654;28;20133;-43
2023/05/31 05:52:50;;;;;;;3.72;1.83;;;13.40;93.30;;;;;;5027980;28;20062;-43
2023/05/31 05:55:20;;;;;;;5.97;1.70;;;13.50;92.90;;;;;;5028678;28;20033;-49
2023/05/31 05:57:47;;;;;;;;;;;13.80;92.70;;;;;;5030636;28;20033;-43
2023/05/31 06:00:15;;;;;;;4.38;1.55;;;14.10;91.90;;;;;;5031411;28;19948;-43
2023/05/31 06:02:42;;;;;;;4.65;1.52;;;14.20;91.50;;;;;;5031351;28;20477;-47
2023/05/31 06:05:09;;;;;;;8.40;1.67;;;14.40;90.60;;;;;;5026437;28;20056;-43
2023/05/31 06:07:36;;;;;;;12.95;2.88;;;14.50;90.20;;;;;;5031533;28;20047;-45
2023/05/31 06:10:04;;;;;;;5.38;1.77;;;14.60;89.60;;;;;;5016985;28;20030;-43
2023/05/31 06:12:31;;;;;;;5.68;1.50;;;14.60;89.40;;;;;;5028316;28;20022;-44
2023/05/31 06:14:58;;;;;;;8.45;2.22;;;14.60;89.30;;;;;;5024432;28;20076;-43
2023/05/31 06:17:25;;;;;;;10.02;2.00;;;14.70;88.90;;;;;;5016847;28;20025;-44
2023/05/31 06:19:51;;;;;;;3.28;1.45;;;14.80;88.60;;;;;;5027792;28;20513;-45
2023/05/31 06:22:17;;;;;;;4.10;1.42;;;14.80;88.40;;;;;;5044025;28;20029;-44
2023/05/31 06:24:43;;;;;;;10.57;2.95;;;14.90;88.00;;;;;;5027375;28;20043;-44
2023/05/31 06:27:12;;;;;;;11.88;2.50;;;15.00;87.60;;;;;;5021693;28;20473;-46
2023/05/31 06:29:41;;;;;;;13.95;2.95;;;14.90;87.20;;;;;;5032085;28;20042;-44
2023/05/31 06:32:08;;;;;;;5.17;1.67;;;15.00;87.10;;;;;;5031228;28;20034;-44
2023/05/31 06:34:35;;;;;;;5.97;1.67;;;15.10;87.40;;;;;;5016503;28;20275;-45
2023/05/31 06:37:04;;;;;;;7.13;1.52;;;15.00;86.50;;;;;;5032374;28;20033;-44
2023/05/31 06:39:31;;;;;;;3.35;1.35;;;15.10;87.00;;;;;;5034909;28;20053;-45
2023/05/31 06:41:59;;;;;;;9.57;3.95;;;15.10;86.80;;;;;;5032886;28;20073;-44
2023/05/31 06:44:26;;;;;;;8.52;2.38;;;15.10;86.60;;;;;;5033836;28;20025;-45
2023/05/31 06:46:53;;;;;;;8.93;2.53;;;15.10;87.10;;;;;;5033520;28;20037;-44
2023/05/31 06:49:20;;;;;;;11.90;5.22;;;15.20;87.20;;;;;;5035395;28;20037;-44
2023/05/31 06:51:47;;;;;;;25.60;10.77;;;15.10;86.80;;;;;;5032568;28;20056;-45
2023/05/31 06:54:16;;;;;;;19.23;6.00;;;15.20;87.10;;;;;;5023777;28;20045;-45
2023/05/31 06:56:43;;;;;;;17.95;6.38;;;15.20;87.20;;;;;;5016115;28;20079;-44
2023/05/31 06:59:11;;;;;;;8.40;3.20;;;15.30;87.00;;;;;;5019328;28;20025;-46
2023/05/31 07:01:37;;;;;;;6.50;1.73;;;15.40;87.10;;;;;;5027712;28;20108;-44
2023/05/31 07:04:04;;;;;;;9.07;2.80;;;15.50;86.10;;;;;;5034445;28;20617;-44
2023/05/31 07:06:31;;;;;;;11.68;4.00;;;15.60;86.60;;;;;;5032725;28;20514;-44
2023/05/31 07:08:58;;;;;;;20.05;4.78;;;15.50;84.90;;;;;;5032023;28;20037;-44
2023/05/31 07:11:25;;;;;;;9.95;2.60;;;15.70;85.80;;;;;;5032050;28;20033;-44
2023/05/31 07:13:54;;;;;;;7.85;2.17;;;16.10;85.20;;;;;;5033641;28;20041;-49
2023/05/31 07:16:21;;;;;;;9.48;2.65;;;16.10;83.80;;;;;;5033415;28;20329;-45
2023/05/31 07:18:48;;;;;;;11.23;2.55;;;16.30;82.80;;;;;;5035241;28;20030;-45
2023/05/31 07:21:17;;;;;;;14.32;3.83;;;16.50;81.80;;;;;;5020836;28;20037;-45
2023/05/31 07:23:42;;;;;;;16.43;4.33;;;16.80;81.30;;;;;;5025699;28;20050;-45
2023/05/31 07:26:09;;;;;;;18.60;3.75;;;17.10;80.80;;;;;;5031354;28;20040;-45
2023/05/31 07:28:35;;;;;;;11.48;2.92;;;17.40;79.80;;;;;;5025065;28;20061;-47
2023/05/31 07:31:02;;;;;;;18.95;3.40;;;17.30;78.90;;;;;;5022322;28;20062;-45
2023/05/31 07:33:30;;;;;;;16.27;4.03;;;17.20;79.60;;;;;;5024642;28;20030;-46
2023/05/31 07:36:00;;;;;;;11.52;3.88;;;16.70;79.10;;;;;;5027304;28;20038;-45
2023/05/31 07:38:31;;;;;;;8.77;4.13;;;16.60;79.70;;;;;;5024707;28;20200;-47
2023/05/31 07:40:58;;;;;;;9.18;4.03;;;16.20;79.90;;;;;;5031355;28;20103;-46
2023/05/31 07:43:26;;;;;;;11.00;4.25;;;15.70;81.20;;;;;;5024101;28;20042;-45
2023/05/31 07:45:57;;;;;;;10.02;4.63;;;15.50;81.60;;;;;;5030132;28;20078;-45
2023/05/31 07:48:25;;;;;;;12.27;5.20;;;15.40;82.50;;;;;;5034967;28;20025;-46
2023/05/31 07:50:52;;;;;;;9.85;3.78;;;15.30;82.30;;;;;;5033614;28;20435;-45
2023/05/31 07:53:19;;;;;;;9.38;4.72;;;15.20;82.50;;;;;;5029145;28;20030;-45
2023/05/31 07:55:47;;;;;;;16.83;5.82;;;15.20;82.90;;;;;;5017714;28;20041;-46
2023/05/31 07:58:16;;;;;;;22.45;6.53;;;14.90;82.00;;;;;;5032548;28;20037;-46
2023/05/31 08:00:43;;;;;;;11.73;5.05;;;14.80;83.00;;;;;;5029275;28;20044;-46
2023/05/31 08:03:10;;;;;;;12.85;5.97;;;14.50;83.30;;;;;;5031436;28;20324;-46
2023/05/31 08:05:37;;;;;;;9.27;4.28;;;14.30;83.70;;;;;;5034323;28;20029;-46
2023/05/31 08:08:10;;;;;;;5.57;4.20;;;14.20;83.70;;;;;;5022638;28;20518;-47
2023/05/31 08:10:37;;;;;;;12.55;4.88;;;14.00;83.90;;;;;;5031960;28;20060;-45
2023/05/31 08:13:04;;;;;;;7.65;4.70;;;14.00;84.50;;;;;;5023173;28;20045;-46
2023/05/31 08:15:31;;;;;;;15.73;4.97;;;14.00;84.40;;;;;;5029667;28;20032;-46
2023/05/31 08:17:58;;;;;;;5.15;3.05;;;14.00;83.70;;;;;;5032712;28;20034;-45
2023/05/31 08:20:26;;;;;;;4.65;2.80;;;14.10;83.60;;;;;;5034012;28;20112;-46
2023/05/31 08:22:53;;;;;;;5.18;3.08;;;14.30;83.20;;;;;;5027297;28;20042;-45
2023/05/31 08:25:22;;;;;;;4.65;2.85;;;14.30;82.00;;;;;;5030805;28;20366;-46
2023/05/31 08:27:49;;;;;;;6.95;3.17;;;14.30;82.40;;;;;;5024349;28;20104;-46
2023/05/31 08:30:16;;;;;;;6.80;3.13;;;14.40;82.00;;;;;;5029001;28;20116;-47
2023/05/31 08:32:43;;;;;;;10.27;2.80;;;14.60;81.00;;;;;;5023073;28;20022;-46
2023/05/31 08:35:09;;;;;;;6.63;2.83;;;14.60;80.90;;;;;;5033715;28;20033;-46
2023/05/31 08:37:45;;;;;;;7.75;2.85;;;14.50;80.90;;;;;;5029614;28;20037;-45
2023/05/31 08:40:12;;;;;;;4.65;2.83;;;14.50;81.00;;;;;;5033430;28;20030;-46
2023/05/31 08:43:02;;;;;;;5.72;2.85;;;14.70;80.60;;;;;;5028791;28;20055;-46
2023/05/31 08:45:30;;;;;;;6.38;3.45;;;15.10;79.10;;;;;;5031301;28;20466;-45
2023/05/31 08:48:27;;;;;;;7.13;3.40;;;15.40;78.60;;;;;;5010866;28;20125;-47
2023/05/31 08:50:56;;;;;;;11.02;4.07;;;15.60;78.20;;;;;;5033134;28;20026;-46
2023/05/31 08:53:25;;;;;;;8.13;3.25;;;15.70;78.30;;;;;;5028493;28;20021;-47
2023/05/31 08:55:53;;;;;;;11.63;3.55;;;16.10;76.70;;;;;;5031746;28;20450;-45
2023/05/31 08:58:22;;;;;;;16.63;4.82;;;16.30;75.60;;;;;;5028342;28;20041;-46
2023/05/31 09:00:49;;;;;;;21.08;5.30;;;16.40;76.90;;;;;;5033356;28;20450;-44
2023/05/31 09:03:16;;;;;;;13.55;3.53;;;16.40;76.10;;;;;;5032074;28;20124;-45
2023/05/31 09:05:45;;;;;;;11.88;3.50;;;16.50;74.90;;;;;;5032794;28;20046;-47
2023/05/31 09:08:13;;;;;;;15.43;3.78;;;16.70;75.50;;;;;;5027484;28;20077;-45
2023/05/31 09:10:41;;;;;;;9.32;3.17;;;16.80;74.10;;;;;;5030091;28;20125;-49
2023/05/31 09:13:08;;;;;;;21.63;5.10;;;16.80;74.30;;;;;;5031106;28;20033;-46
2023/05/31 09:15:36;;;;;;;21.83;5.55;;;16.90;74.80;;;;;;5029397;28;20048;-45
2023/05/31 09:18:21;;;;;;;17.73;4.35;;;16.80;74.60;;;;;;5033062;28;20478;-48
2023/05/31 09:20:49;;;;;;;11.38;3.95;;;16.70;74.20;;;;;;5033272;28;20040;-46
2023/05/31 09:23:17;;;;;;;10.07;3.85;;;16.80;73.10;;;;;;5020354;28;20029;-47
2023/05/31 09:25:47;;;;;;;10.38;3.65;;;17.10;73.00;;;;;;5019338;28;20057;-45
2023/05/31 09:28:16;;;;;;;12.48;3.13;;;17.20;73.20;;;;;;5013280;28;20048;-46
2023/05/31 09:30:43;;;;;;;16.77;4.43;;;17.40;73.00;;;;;;5023276;28;20030;-45
2023/05/31 09:33:15;;;;;;;20.80;4.43;;;17.60;73.00;;;;;;5031840;28;20044;-46
2023/05/31 09:35:58;;;;;;;21.70;4.63;;;17.90;73.10;;;;;;5026183;28;20026;-45
2023/05/31 09:38:35;;;;;;;13.77;3.65;;;18.30;70.80;;;;;;5024854;28;20447;-46
2023/05/31 09:41:19;;;;;;;8.00;2.78;;;18.30;70.00;;;;;;5023192;28;20044;-46
2023/05/31 09:43:50;;;;;;;7.90;3.08;;;18.20;70.40;;;;;;5029234;28;20477;-46
2023/05/31 09:46:34;;;;;;;15.75;5.38;;;18.30;70.00;;;;;;5018542;28;20435;-46
2023/05/31 09:49:19;;;;;;;31.42;7.55;;;18.50;70.10;;;;;;5027414;28;20045;-46
2023/05/31 09:51:52;;;;;;;9.88;3.80;;;18.20;69.10;;;;;;5024003;28;20091;-46
2023/05/31 09:54:24;;;;;;;13.18;3.78;;;18.30;71.10;;;;;;5026072;28;20025;-46
2023/05/31 09:56:50;;;;;;;9.18;3.70;;;18.00;69.70;;;;;;5015183;28;20065;-45
2023/05/31 09:59:18;;;;;;;15.63;4.43;;;18.10;71.30;;;;;;5017955;28;20048;-46
2023/05/31 10:01:46;;;;;;;13.40;4.75;;;18.30;68.90;;;;;;5029439;28;20029;-45
2023/05/31 10:04:12;;;;;;;10.23;3.50;;;18.40;69.20;;;;;;5030295;28;20037;-45
2023/05/31 10:06:39;;;;;;;13.60;4.60;;;18.40;68.70;;;;;;5030340;28;20053;-46
2023/05/31 10:09:07;;;;;;;12.80;4.22;;;18.50;68.50;;;;;;5027688;28;20049;-45
2023/05/31 10:11:36;;;;;;;9.30;3.58;;;18.40;69.80;;;;;;5024434;28;20041;-47
2023/05/31 10:14:12;;;;;;;9.60;4.05;;;18.70;68.00;;;;;;5021167;28;20022;-46
2023/05/31 10:16:49;;;;;;;10.07;4.50;;;18.80;67.90;;;;;;5031212;28;20186;-46
2023/05/31 10:19:24;;;;;;;9.38;4.70;;;18.50;67.40;;;;;;5019438;28;20079;-47
2023/05/31 10:21:51;;;;;;;12.15;4.82;;;18.60;67.20;;;;;;5026402;28;20043;-46
2023/05/31 10:24:33;;;;;;;10.40;4.25;;;18.50;67.30;;;;;;5024627;28;20358;-45
2023/05/31 10:27:08;;;;;;;8.40;4.05;;;18.50;68.10;;;;;;5022284;28;20029;-46
2023/05/31 10:29:46;;;;;;;9.82;3.90;;;18.10;67.10;;;;;;5025019;28;20072;-45
2023/05/31 10:32:28;;;;;;;7.53;3.47;;;18.20;67.80;;;;;;5027702;28;20064;-45
2023/05/31 10:34:55;;;;;;;17.17;4.30;;;18.50;68.40;;;;;;5020789;28;20029;-46
2023/05/31 10:37:23;;;;;;;14.50;4.40;;;18.80;67.40;;;;;;5020262;28;20104;-48
2023/05/31 10:40:00;;;;;;;10.27;4.18;;;18.70;67.60;;;;;;5024017;28;20470;-46
2023/05/31 10:42:40;;;;;;;10.55;4.18;;;18.80;68.80;;;;;;5031911;28;20371;-46
2023/05/31 10:45:16;;;;;;;10.82;3.78;;;18.80;67.30;;;;;;5021291;28;20025;-46
2023/05/31 10:48:20;;;;;;;11.27;4.32;;;18.40;66.10;;;;;;5028318;28;20018;-46
2023/05/31 10:50:57;;;;;;;7.22;3.67;;;18.20;66.50;;;;;;5029012;28;20037;-46
2023/05/31 10:53:47;;;;;;;10.38;3.70;;;18.20;65.60;;;;;;5019782;28;20051;-46
2023/05/31 10:56:14;;;;;;;11.68;3.08;;;18.30;66.60;;;;;;5026809;28;20030;-48
2023/05/31 10:58:59;;;;;;;10.13;3.50;;;18.50;66.10;;;;;;5029309;28;20117;-46
2023/05/31 11:01:29;;;;;;;6.18;2.97;;;18.90;66.00;;;;;;5028298;28;20034;-48
2023/05/31 11:03:57;;;;;;;;;;;19.00;66.30;;;;;;5028064;28;20029;-47
2023/05/31 11:06:32;;;;;;;9.88;3.53;;;19.30;64.60;;;;;;5031172;28;19924;-49
2023/05/31 11:08:59;;;;;;;7.97;2.70;;;19.10;64.10;;;;;;5024029;28;20364;-46
2023/05/31 11:11:31;;;;;;;9.93;3.67;;;19.20;63.20;;;;;;5028952;28;20026;-47
2023/05/31 11:14:01;;;;;;;6.80;3.90;;;19.10;64.00;;;;;;5026540;28;20068;-48
2023/05/31 11:16:56;;;;;;;8.55;4.50;;;19.10;64.90;;;;;;5034105;28;20024;-47
2023/05/31 11:19:43;;;;;;;7.78;3.88;;;19.00;65.20;;;;;;5035439;28;20462;-46
2023/05/31 11:22:28;;;;;;;7.95;3.45;;;19.10;65.60;;;;;;5035188;28;20033;-48
2023/05/31 11:24:57;;;;;;;10.57;3.83;;;19.00;65.90;;;;;;5026576;28;20028;-49
2023/05/31 11:27:40;;;;;;;7.95;4.13;;;18.70;65.70;;;;;;5034561;28;20383;-47
2023/05/31 11:30:34;;;;;;;11.00;4.88;;;18.70;67.80;;;;;;5033474;28;20515;-46
2023/05/31 11:33:02;;;;;;;10.43;4.50;;;18.80;68.00;;;;;;5020699;28;20052;-46
2023/05/31 11:35:31;;;;;;;10.60;4.85;;;18.90;66.00;;;;;;5034697;28;20018;-46
2023/05/31 11:38:06;;;;;;;6.70;3.70;;;19.00;65.70;;;;;;5023764;28;20109;-46
2023/05/31 11:40:32;;;;;;;9.85;4.55;;;19.10;66.70;;;;;;5025132;28;20038;-46
2023/05/31 11:43:05;;;;;;;11.00;4.00;;;19.10;65.50;;;;;;5035051;28;20029;-46
2023/05/31 11:45:36;;;;;;;7.57;3.92;;;19.20;64.70;;;;;;5033623;28;20042;-46
2023/05/31 11:48:32;;;;;;;6.97;3.85;;;18.90;64.90;;;;;;5025477;28;20124;-47
2023/05/31 11:51:00;;;;;;;7.20;4.18;;;18.50;67.30;;;;;;5027544;28;20082;-47
2023/05/31 11:53:28;;;;;;;8.80;4.63;;;18.40;68.50;;;;;;5021236;28;20030;-46
2023/05/31 11:55:54;;;;;;;9.48;4.22;;;18.40;67.00;;;;;;5030677;28;20014;-46
2023/05/31 11:58:21;;;;;;;11.25;4.55;;;18.30;68.20;;;;;;5025199;28;20029;-47
2023/05/31 12:00:48;;;;;;;9.90;4.70;;;18.40;68.80;;;;;;5023491;28;20383;-46
2023/05/31 12:03:16;;;;;;;7.75;4.45;;;18.20;68.00;;;;;;5025856;28;20435;-46
2023/05/31 12:05:50;;;;;;;13.02;5.72;;;18.20;69.40;;;;;;5033416;28;20094;-48
2023/05/31 12:08:18;;;;;;;10.20;6.45;;;18.20;69.30;;;;;;5030264;28;20048;-48
2023/05/31 12:10:45;;;;;;;12.00;6.40;;;18.20;68.70;;;;;;5032576;28;20025;-46
2023/05/31 12:13:16;;;;;;;15.32;7.32;;;18.00;69.00;;;;;;5034470;28;20076;-47
2023/05/31 12:15:53;;;;;;;6.80;4.40;;;18.00;69.90;;;;;;5033795;28;20018;-46
2023/05/31 12:18:22;;;;;;;9.48;5.82;;;18.10;68.80;;;;;;5032829;28;20029;-50
2023/05/31 12:20:49;;;;;;;8.40;4.78;;;18.10;70.10;;;;;;5030625;28;20025;-46
2023/05/31 12:23:18;;;;;;;10.07;4.38;;;17.90;69.40;;;;;;5028038;28;20039;-49
2023/05/31 12:25:49;;;;;;;9.52;4.45;;;17.90;69.10;;;;;;5026891;28;20035;-46
2023/05/31 12:28:19;;;;;;;7.78;4.00;;;17.80;69.80;;;;;;5023437;28;20367;-46
2023/05/31 12:30:47;;;;;;;11.10;4.80;;;17.70;69.60;;;;;;5031924;28;20033;-49
2023/05/31 12:33:14;;;;;;;9.77;4.75;;;17.60;70.50;;;;;;5033479;28;20029;-48
2023/05/31 12:35:42;;;;;;;14.52;5.75;;;17.70;70.20;;;;;;5033429;28;20026;-46
2023/05/31 12:38:10;;;;;;;12.45;5.97;;;17.50;69.70;;;;;;5031716;28;20029;-46
2023/05/31 12:40:44;;;;;;;14.05;5.70;;;17.30;69.80;;;;;;5028509;28;20026;-49
2023/05/31 12:43:14;;;;;;;10.30;5.13;;;17.40;71.00;;;;;;5028963;28;20033;-46
2023/05/31 12:45:43;;;;;;;10.80;5.32;;;17.40;71.10;;;;;;5024680;28;20041;-45
2023/05/31 12:48:11;;;;;;;12.13;4.97;;;17.40;71.00;;;;;;5020541;28;20034;-46
2023/05/31 12:50:44;;;;;;;15.32;6.35;;;17.40;69.70;;;;;;5025396;28;20053;-45
2023/05/31 12:53:12;;;;;;;9.15;4.80;;;17.50;70.90;;;;;;5025293;28;20026;-45
2023/05/31 12:55:39;;;;;;;12.10;5.60;;;17.40;69.90;;;;;;5022654;28;20091;-47
2023/05/31 12:58:06;;;;;;;14.02;6.95;;;17.40;70.10;;;;;;5032953;28;20104;-45
2023/05/31 13:00:34;;;;;;;12.43;6.45;;;17.40;71.30;;;;;;5023886;28;20502;-46